Halcyon — C6WB4 — position and weather

sailwx.info

Track history (hours):
 
Tides and Currents Weather Stations Pressure Air Temp Water Temp Dewpoint Dewpoint Depression Visibility Wind Speed Wind Dir Waves Ship Positions

Halcyon

Last reported at 2017-Sep-19 21:55 UTC. Time now 2017-Sep-22 09:56 UTC.
Position N 31°04' E 122°31'.

Length 148 m; draft 7.3 m.

Type: Ship. MMSI: 311033860.

Date/timePositionNaut miles runAvg speedWind from/ knotsBaromVisibWave heightAir tempDewpointWater temp
2017-Sep-19 21:55N 31°04' E 122°31'611.9
2017-Sep-19 21:26N 31°05' E 122°24'613.3
2017-Sep-19 21:01N 31°06' E 122°18'714.5
2017-Sep-19 20:30N 31°11' E 122°11'714.2
2017-Sep-19 20:00N 31°14' E 122°04'713.8
2017-Sep-19 19:30N 31°15' E 121°56'714.2
2017-Sep-19 19:01N 31°17' E 121°48'612.6
2017-Sep-19 18:30N 31°20' E 121°41'1 1.1
2017-Sep-19 18:00N 31°20' E 121°40'0 0.0
2017-Sep-19 17:30N 31°20' E 121°40'0 0.0
2017-Sep-19 17:00N 31°20' E 121°40'0 0.0
2017-Sep-19 16:30N 31°20' E 121°40'0 0.0
2017-Sep-19 16:00N 31°20' E 121°40'0 0.0
2017-Sep-19 15:30N 31°20' E 121°40'0 0.0
2017-Sep-19 15:00N 31°20' E 121°40'0 0.0
2017-Sep-19 14:30N 31°20' E 121°40'0 0.0
2017-Sep-19 14:00N 31°20' E 121°40'0 0.0
2017-Sep-19 13:30N 31°20' E 121°40'0 0.0
2017-Sep-19 13:00N 31°20' E 121°40'0 0.0
2017-Sep-19 12:30N 31°20' E 121°40'0 0.0
2017-Sep-19 12:00N 31°20' E 121°40'0 0.0
2017-Sep-19 11:30N 31°20' E 121°40'0 0.0
2017-Sep-19 11:00N 31°20' E 121°40'0 0.0
2017-Sep-19 10:30N 31°20' E 121°40'0 0.0
2017-Sep-19 10:00N 31°20' E 121°40'0 0.0
2017-Sep-19 09:30N 31°20' E 121°40'0 0.0
2017-Sep-19 09:00N 31°20' E 121°40'0 0.0
2017-Sep-19 08:27N 31°20' E 121°40'0 0.0
2017-Sep-19 08:00N 31°20' E 121°40'0 0.0
2017-Sep-19 07:30N 31°20' E 121°40'0 0.0
2017-Sep-19 07:00N 31°20' E 121°40'0 0.0
2017-Sep-19 06:30N 31°20' E 121°40'0 0.0
2017-Sep-19 06:00N 31°20' E 121°40'0 0.0
2017-Sep-19 05:30N 31°20' E 121°40'0 0.0
2017-Sep-19 05:00N 31°20' E 121°40'0 0.0
2017-Sep-19 04:30N 31°20' E 121°40'0 0.0
2017-Sep-19 04:00N 31°20' E 121°40'0 0.0
2017-Sep-19 03:30N 31°20' E 121°40'0 0.0
2017-Sep-19 02:57N 31°20' E 121°40'0 0.0
2017-Sep-19 02:30N 31°20' E 121°40'0 0.0
2017-Sep-19 02:00N 31°20' E 121°40'0 0.0
2017-Sep-19 01:30N 31°20' E 121°40'0 0.0
2017-Sep-19 01:00N 31°20' E 121°40'0 0.0
2017-Sep-19 00:30N 31°20' E 121°40'0 0.0
2017-Sep-19 00:00N 31°20' E 121°40'0 0.9
2017-Sep-18 23:30N 31°20' E 121°41'3 6.2
2017-Sep-18 23:00N 31°19' E 121°44'5 9.8
2017-Sep-18 22:30N 31°17' E 121°49'5 9.9
2017-Sep-18 22:00N 31°16' E 121°55'5 9.6
2017-Sep-18 21:30N 31°15' E 122°01'5 9.6
2017-Sep-18 21:00N 31°14' E 122°06'4 7.9
2017-Sep-18 20:30N 31°11' E 122°10'5 9.7
2017-Sep-18 20:01N 31°09' E 122°14'611.2
2017-Sep-18 19:30N 31°06' E 122°20'510.2
2017-Sep-18 18:59N 31°06' E 122°27'4 7.7
2017-Sep-18 18:30N 31°08' E 122°31'5 9.2
2017-Sep-18 18:00N 31°07' E 122°36'8 9.6
2017-Sep-18 17:13N 31°05' E 122°44'1 3.9
2017-Sep-18 17:00N 31°04' E 122°45'0 0.1
2017-Sep-18 16:28N 31°04' E 122°45'0 0.1
2017-Sep-18 15:58N 31°04' E 122°45'0 0.0
2017-Sep-18 15:28N 31°04' E 122°45'0 0.0
2017-Sep-18 14:52N 31°04' E 122°45'0 0.1
2017-Sep-18 14:10N 31°04' E 122°45'0 0.0
2017-Sep-18 13:58N 31°04' E 122°45'0 0.1
2017-Sep-18 13:28N 31°04' E 122°45'0 0.0
2017-Sep-18 12:55N 31°04' E 122°45'  
2017-Sep-15 03:31N 34°36' E 134°54'016.0
2017-Sep-15 03:30N 34°36' E 134°54'714.3
2017-Sep-15 03:01N 34°37' E 135°03'714.7
2017-Sep-15 02:31N 34°36' E 135°12'4 8.4
2017-Sep-15 02:01N 34°39' E 135°15'1 2.7
2017-Sep-15 01:29N 34°40' E 135°14'0 0.0
2017-Sep-15 00:59N 34°40' E 135°14'0 0.0
2017-Sep-15 00:23N 34°40' E 135°14'0 0.0
2017-Sep-14 23:53N 34°40' E 135°14'0 0.0
2017-Sep-14 23:29N 34°40' E 135°14'0 0.0
2017-Sep-14 22:53N 34°40' E 135°14'0 0.0
2017-Sep-14 22:23N 34°40' E 135°14'0 0.0
2017-Sep-14 21:59N 34°40' E 135°14'0 0.0
2017-Sep-14 21:23N 34°40' E 135°14'0 0.0
2017-Sep-14 20:53N 34°40' E 135°14'0 0.0
2017-Sep-14 20:29N 34°40' E 135°14'0 0.0
2017-Sep-14 19:59N 34°40' E 135°14'0 0.0
2017-Sep-14 19:29N 34°40' E 135°14'0 0.0
2017-Sep-14 18:59N 34°40' E 135°14'0 0.0
2017-Sep-14 18:29N 34°40' E 135°14'0 0.0
2017-Sep-14 17:53N 34°40' E 135°14'0 0.0
2017-Sep-14 17:23N 34°40' E 135°14'0 0.0
2017-Sep-14 16:53N 34°40' E 135°14'0 0.0
2017-Sep-14 16:23N 34°40' E 135°14'0 0.0
2017-Sep-14 15:53N 34°40' E 135°14'0 0.0
2017-Sep-14 15:23N 34°40' E 135°14'0 0.0
2017-Sep-14 14:59N 34°40' E 135°14'0 0.0
2017-Sep-14 14:29N 34°40' E 135°14'0 0.0
2017-Sep-14 13:59N 34°40' E 135°14'0 0.0
2017-Sep-14 13:29N 34°40' E 135°14'0 0.0
2017-Sep-14 12:59N 34°40' E 135°14'0 0.0
2017-Sep-14 12:29N 34°40' E 135°14'0 0.0
2017-Sep-14 11:53N 34°40' E 135°14'0 0.0
2017-Sep-14 11:29N 34°40' E 135°14'0 0.0
2017-Sep-14 10:47N 34°40' E 135°14'0 0.0
2017-Sep-14 10:29N 34°40' E 135°14'0 0.0
2017-Sep-14 09:59N 34°40' E 135°14'0 0.0
2017-Sep-14 09:31N 34°40' E 135°14'0 0.5
2017-Sep-14 09:00N 34°40' E 135°14'2 4.7
2017-Sep-14 08:30N 34°39' E 135°17'4 8.7
2017-Sep-14 08:01N 34°39' E 135°22'3 6.5
2017-Sep-14 07:30N 34°39' E 135°26'0 0.1
2017-Sep-14 06:48N 34°39' E 135°26'0 0.0
2017-Sep-14 06:06N 34°39' E 135°26'0 0.0
2017-Sep-14 05:54N 34°39' E 135°26'0 0.0
2017-Sep-14 05:30N 34°39' E 135°26'0 0.0
2017-Sep-14 04:18N 34°39' E 135°26'0 0.0
2017-Sep-14 04:00N 34°39' E 135°26'0 0.0
2017-Sep-14 03:18N 34°39' E 135°26'0 0.0
2017-Sep-14 03:00N 34°39' E 135°26'0 0.0
2017-Sep-14 02:24N 34°39' E 135°26'0 0.0
2017-Sep-14 02:00N 34°39' E 135°26'0 0.0
2017-Sep-14 00:42N 34°39' E 135°26'0 0.0
2017-Sep-14 00:30N 34°39' E 135°26'0 0.0
2017-Sep-14 00:00N 34°39' E 135°26'0 0.0
2017-Sep-13 23:30N 34°39' E 135°26'0 0.0
2017-Sep-13 23:00N 34°39' E 135°26'2 3.1
2017-Sep-13 22:30N 34°38' E 135°24'4 8.1
2017-Sep-13 22:00N 34°36' E 135°20'5 9.1
2017-Sep-13 21:30N 34°35' E 135°15'713.2
2017-Sep-13 21:00N 34°35' E 135°07'612.2
2017-Sep-13 20:30N 34°37' E 134°60'714.3
2017-Sep-13 20:00N 34°34' E 134°52'816.3
2017-Sep-13 19:30N 34°31' E 134°43'66114.9
2017-Sep-11 23:10N 31°08' E 122°14'213.4
2017-Sep-11 23:00N 31°10' E 122°12'713.5
2017-Sep-11 22:30N 31°14' E 122°06'714.5
2017-Sep-11 22:01N 31°15' E 121°57'815.2
2017-Sep-11 21:31N 31°17' E 121°49'713.8
2017-Sep-11 21:00N 31°20' E 121°41'510.5
2017-Sep-11 20:30N 31°22' E 121°36'0 0.4
2017-Sep-11 20:00N 31°22' E 121°36'0 0.0
2017-Sep-11 19:30N 31°22' E 121°36'0 0.0
2017-Sep-11 19:00N 31°22' E 121°36'0 0.0
2017-Sep-11 18:30N 31°22' E 121°36'0 0.0
2017-Sep-11 18:00N 31°22' E 121°36'0 0.0
2017-Sep-11 17:30N 31°22' E 121°36'0 0.0
2017-Sep-11 17:00N 31°22' E 121°36'0 0.0
2017-Sep-11 16:30N 31°22' E 121°36'0 0.0
2017-Sep-11 16:00N 31°22' E 121°36'0 0.0
2017-Sep-11 15:30N 31°22' E 121°36'0 0.0
2017-Sep-11 14:58N 31°22' E 121°36'0 0.0
2017-Sep-11 14:30N 31°22' E 121°36'0 0.0
2017-Sep-11 14:00N 31°22' E 121°36'0 0.0
2017-Sep-11 13:30N 31°22' E 121°36'0 0.0
2017-Sep-11 13:00N 31°22' E 121°36'0 0.0
2017-Sep-11 12:30N 31°22' E 121°36'0 0.0
2017-Sep-11 12:00N 31°22' E 121°36'0 0.0
2017-Sep-11 11:30N 31°22' E 121°36'0 0.0
2017-Sep-11 11:00N 31°22' E 121°36'0 0.0
2017-Sep-11 10:30N 31°22' E 121°36'0 0.0
2017-Sep-11 10:00N 31°22' E 121°36'0 0.0
2017-Sep-11 09:30N 31°22' E 121°36'0 0.0
2017-Sep-11 08:57N 31°22' E 121°36'0 0.0
2017-Sep-11 08:30N 31°22' E 121°36'0 0.0
2017-Sep-11 08:00N 31°22' E 121°36'0 0.0
2017-Sep-11 07:30N 31°22' E 121°36'0 0.6
2017-Sep-11 07:00N 31°22' E 121°36'2 3.3
2017-Sep-11 06:30N 31°22' E 121°38'4 8.5
2017-Sep-11 06:00N 31°20' E 121°42'611.1
2017-Sep-11 05:30N 31°18' E 121°48'611.4
2017-Sep-11 05:00N 31°16' E 121°54'611.1
2017-Sep-11 04:31N 31°15' E 122°01'611.3
2017-Sep-11 04:00N 31°13' E 122°07'510.9
2017-Sep-11 03:30N 31°10' E 122°12'5 9.5
2017-Sep-11 03:00N 31°07' E 122°17'5 9.0
2017-Sep-11 02:30N 31°06' E 122°22'6 9.8
2017-Sep-11 01:55N 31°06' E 122°29'  
Track history (hours):
 
Tides and Currents Weather Stations Pressure Air Temp Water Temp Dewpoint Dewpoint Depression Visibility Wind Speed Wind Dir Waves Ship Positions

Halcyon

Last reported at 2017-Sep-19 21:55 UTC. Time now 2017-Sep-22 09:56 UTC.
Position N 31°04' E 122°31'.

Length 148 m; draft 7.3 m.

Type: Ship. MMSI: 311033860.

Date/timePositionNaut miles runAvg speedWind from/ knotsBaromVisibWave heightAir tempDewpointWater temp
2017-Sep-19 21:55N 31°04' E 122°31'611.9
2017-Sep-19 21:26N 31°05' E 122°24'613.3
2017-Sep-19 21:01N 31°06' E 122°18'714.5
2017-Sep-19 20:30N 31°11' E 122°11'714.2
2017-Sep-19 20:00N 31°14' E 122°04'713.8
2017-Sep-19 19:30N 31°15' E 121°56'714.2
2017-Sep-19 19:01N 31°17' E 121°48'612.6
2017-Sep-19 18:30N 31°20' E 121°41'1 1.1
2017-Sep-19 18:00N 31°20' E 121°40'0 0.0
2017-Sep-19 17:30N 31°20' E 121°40'0 0.0
2017-Sep-19 17:00N 31°20' E 121°40'0 0.0
2017-Sep-19 16:30N 31°20' E 121°40'0 0.0
2017-Sep-19 16:00N 31°20' E 121°40'0 0.0
2017-Sep-19 15:30N 31°20' E 121°40'0 0.0
2017-Sep-19 15:00N 31°20' E 121°40'0 0.0
2017-Sep-19 14:30N 31°20' E 121°40'0 0.0
2017-Sep-19 14:00N 31°20' E 121°40'0 0.0
2017-Sep-19 13:30N 31°20' E 121°40'0 0.0
2017-Sep-19 13:00N 31°20' E 121°40'0 0.0
2017-Sep-19 12:30N 31°20' E 121°40'0 0.0
2017-Sep-19 12:00N 31°20' E 121°40'0 0.0
2017-Sep-19 11:30N 31°20' E 121°40'0 0.0
2017-Sep-19 11:00N 31°20' E 121°40'0 0.0
2017-Sep-19 10:30N 31°20' E 121°40'0 0.0
2017-Sep-19 10:00N 31°20' E 121°40'0 0.0
2017-Sep-19 09:30N 31°20' E 121°40'0 0.0
2017-Sep-19 09:00N 31°20' E 121°40'0 0.0
2017-Sep-19 08:27N 31°20' E 121°40'0 0.0
2017-Sep-19 08:00N 31°20' E 121°40'0 0.0
2017-Sep-19 07:30N 31°20' E 121°40'0 0.0
2017-Sep-19 07:00N 31°20' E 121°40'0 0.0
2017-Sep-19 06:30N 31°20' E 121°40'0 0.0
2017-Sep-19 06:00N 31°20' E 121°40'0 0.0
2017-Sep-19 05:30N 31°20' E 121°40'0 0.0
2017-Sep-19 05:00N 31°20' E 121°40'0 0.0
2017-Sep-19 04:30N 31°20' E 121°40'0 0.0
2017-Sep-19 04:00N 31°20' E 121°40'0 0.0
2017-Sep-19 03:30N 31°20' E 121°40'0 0.0
2017-Sep-19 02:57N 31°20' E 121°40'0 0.0
2017-Sep-19 02:30N 31°20' E 121°40'0 0.0
2017-Sep-19 02:00N 31°20' E 121°40'0 0.0
2017-Sep-19 01:30N 31°20' E 121°40'0 0.0
2017-Sep-19 01:00N 31°20' E 121°40'0 0.0
2017-Sep-19 00:30N 31°20' E 121°40'0 0.0
2017-Sep-19 00:00N 31°20' E 121°40'0 0.9
2017-Sep-18 23:30N 31°20' E 121°41'3 6.2
2017-Sep-18 23:00N 31°19' E 121°44'5 9.8
2017-Sep-18 22:30N 31°17' E 121°49'5 9.9
2017-Sep-18 22:00N 31°16' E 121°55'5 9.6
2017-Sep-18 21:30N 31°15' E 122°01'5 9.6
2017-Sep-18 21:00N 31°14' E 122°06'4 7.9
2017-Sep-18 20:30N 31°11' E 122°10'5 9.7
2017-Sep-18 20:01N 31°09' E 122°14'611.2
2017-Sep-18 19:30N 31°06' E 122°20'510.2
2017-Sep-18 18:59N 31°06' E 122°27'4 7.7
2017-Sep-18 18:30N 31°08' E 122°31'5 9.2
2017-Sep-18 18:00N 31°07' E 122°36'8 9.6
2017-Sep-18 17:13N 31°05' E 122°44'1 3.9
2017-Sep-18 17:00N 31°04' E 122°45'0 0.1
2017-Sep-18 16:28N 31°04' E 122°45'0 0.1
2017-Sep-18 15:58N 31°04' E 122°45'0 0.0
2017-Sep-18 15:28N 31°04' E 122°45'0 0.0
2017-Sep-18 14:52N 31°04' E 122°45'0 0.1
2017-Sep-18 14:10N 31°04' E 122°45'0 0.0
2017-Sep-18 13:58N 31°04' E 122°45'0 0.1
2017-Sep-18 13:28N 31°04' E 122°45'0 0.0
2017-Sep-18 12:55N 31°04' E 122°45'  
2017-Sep-15 03:31N 34°36' E 134°54'016.0
2017-Sep-15 03:30N 34°36' E 134°54'714.3
2017-Sep-15 03:01N 34°37' E 135°03'714.7
2017-Sep-15 02:31N 34°36' E 135°12'4 8.4
2017-Sep-15 02:01N 34°39' E 135°15'1 2.7
2017-Sep-15 01:29N 34°40' E 135°14'0 0.0
2017-Sep-15 00:59N 34°40' E 135°14'0 0.0
2017-Sep-15 00:23N 34°40' E 135°14'0 0.0
2017-Sep-14 23:53N 34°40' E 135°14'0 0.0
2017-Sep-14 23:29N 34°40' E 135°14'0 0.0
2017-Sep-14 22:53N 34°40' E 135°14'0 0.0
2017-Sep-14 22:23N 34°40' E 135°14'0 0.0
2017-Sep-14 21:59N 34°40' E 135°14'0 0.0
2017-Sep-14 21:23N 34°40' E 135°14'0 0.0
2017-Sep-14 20:53N 34°40' E 135°14'0 0.0
2017-Sep-14 20:29N 34°40' E 135°14'0 0.0
2017-Sep-14 19:59N 34°40' E 135°14'0 0.0
2017-Sep-14 19:29N 34°40' E 135°14'0 0.0
2017-Sep-14 18:59N 34°40' E 135°14'0 0.0
2017-Sep-14 18:29N 34°40' E 135°14'0 0.0
2017-Sep-14 17:53N 34°40' E 135°14'0 0.0
2017-Sep-14 17:23N 34°40' E 135°14'0 0.0
2017-Sep-14 16:53N 34°40' E 135°14'0 0.0
2017-Sep-14 16:23N 34°40' E 135°14'0 0.0
2017-Sep-14 15:53N 34°40' E 135°14'0 0.0
2017-Sep-14 15:23N 34°40' E 135°14'0 0.0
2017-Sep-14 14:59N 34°40' E 135°14'0 0.0
2017-Sep-14 14:29N 34°40' E 135°14'0 0.0
2017-Sep-14 13:59N 34°40' E 135°14'0 0.0
2017-Sep-14 13:29N 34°40' E 135°14'0 0.0
2017-Sep-14 12:59N 34°40' E 135°14'0 0.0
2017-Sep-14 12:29N 34°40' E 135°14'0 0.0
2017-Sep-14 11:53N 34°40' E 135°14'0 0.0
2017-Sep-14 11:29N 34°40' E 135°14'0 0.0
2017-Sep-14 10:47N 34°40' E 135°14'0 0.0
2017-Sep-14 10:29N 34°40' E 135°14'0 0.0
2017-Sep-14 09:59N 34°40' E 135°14'0 0.0
2017-Sep-14 09:31N 34°40' E 135°14'0 0.5
2017-Sep-14 09:00N 34°40' E 135°14'2 4.7
2017-Sep-14 08:30N 34°39' E 135°17'4 8.7
2017-Sep-14 08:01N 34°39' E 135°22'3 6.5
2017-Sep-14 07:30N 34°39' E 135°26'0 0.1
2017-Sep-14 06:48N 34°39' E 135°26'0 0.0
2017-Sep-14 06:06N 34°39' E 135°26'0 0.0
2017-Sep-14 05:54N 34°39' E 135°26'0 0.0
2017-Sep-14 05:30N 34°39' E 135°26'0 0.0
2017-Sep-14 04:18N 34°39' E 135°26'0 0.0
2017-Sep-14 04:00N 34°39' E 135°26'0 0.0
2017-Sep-14 03:18N 34°39' E 135°26'0 0.0
2017-Sep-14 03:00N 34°39' E 135°26'0 0.0
2017-Sep-14 02:24N 34°39' E 135°26'0 0.0
2017-Sep-14 02:00N 34°39' E 135°26'0 0.0
2017-Sep-14 00:42N 34°39' E 135°26'0 0.0
2017-Sep-14 00:30N 34°39' E 135°26'0 0.0
2017-Sep-14 00:00N 34°39' E 135°26'0 0.0
2017-Sep-13 23:30N 34°39' E 135°26'0 0.0
2017-Sep-13 23:00N 34°39' E 135°26'2 3.1
2017-Sep-13 22:30N 34°38' E 135°24'4 8.1
2017-Sep-13 22:00N 34°36' E 135°20'5 9.1
2017-Sep-13 21:30N 34°35' E 135°15'713.2
2017-Sep-13 21:00N 34°35' E 135°07'612.2
2017-Sep-13 20:30N 34°37' E 134°60'714.3
2017-Sep-13 20:00N 34°34' E 134°52'816.3
2017-Sep-13 19:30N 34°31' E 134°43'66114.9
2017-Sep-11 23:10N 31°08' E 122°14'213.4
2017-Sep-11 23:00N 31°10' E 122°12'713.5
2017-Sep-11 22:30N 31°14' E 122°06'714.5
2017-Sep-11 22:01N 31°15' E 121°57'815.2
2017-Sep-11 21:31N 31°17' E 121°49'713.8
2017-Sep-11 21:00N 31°20' E 121°41'510.5
2017-Sep-11 20:30N 31°22' E 121°36'0 0.4
2017-Sep-11 20:00N 31°22' E 121°36'0 0.0
2017-Sep-11 19:30N 31°22' E 121°36'0 0.0
2017-Sep-11 19:00N 31°22' E 121°36'0 0.0
2017-Sep-11 18:30N 31°22' E 121°36'0 0.0
2017-Sep-11 18:00N 31°22' E 121°36'0 0.0
2017-Sep-11 17:30N 31°22' E 121°36'0 0.0
2017-Sep-11 17:00N 31°22' E 121°36'0 0.0
2017-Sep-11 16:30N 31°22' E 121°36'0 0.0
2017-Sep-11 16:00N 31°22' E 121°36'0 0.0
2017-Sep-11 15:30N 31°22' E 121°36'0 0.0
2017-Sep-11 14:58N 31°22' E 121°36'0 0.0
2017-Sep-11 14:30N 31°22' E 121°36'0 0.0
2017-Sep-11 14:00N 31°22' E 121°36'0 0.0
2017-Sep-11 13:30N 31°22' E 121°36'0 0.0
2017-Sep-11 13:00N 31°22' E 121°36'0 0.0
2017-Sep-11 12:30N 31°22' E 121°36'0 0.0
2017-Sep-11 12:00N 31°22' E 121°36'0 0.0
2017-Sep-11 11:30N 31°22' E 121°36'0 0.0
2017-Sep-11 11:00N 31°22' E 121°36'0 0.0
2017-Sep-11 10:30N 31°22' E 121°36'0 0.0
2017-Sep-11 10:00N 31°22' E 121°36'0 0.0
2017-Sep-11 09:30N 31°22' E 121°36'0 0.0
2017-Sep-11 08:57N 31°22' E 121°36'0 0.0
2017-Sep-11 08:30N 31°22' E 121°36'0 0.0
2017-Sep-11 08:00N 31°22' E 121°36'0 0.0
2017-Sep-11 07:30N 31°22' E 121°36'0 0.6
2017-Sep-11 07:00N 31°22' E 121°36'2 3.3
2017-Sep-11 06:30N 31°22' E 121°38'4 8.5
2017-Sep-11 06:00N 31°20' E 121°42'611.1
2017-Sep-11 05:30N 31°18' E 121°48'611.4
2017-Sep-11 05:00N 31°16' E 121°54'611.1
2017-Sep-11 04:31N 31°15' E 122°01'611.3
2017-Sep-11 04:00N 31°13' E 122°07'510.9
2017-Sep-11 03:30N 31°10' E 122°12'5 9.5
2017-Sep-11 03:00N 31°07' E 122°17'5 9.0
2017-Sep-11 02:30N 31°06' E 122°22'6 9.8
2017-Sep-11 01:55N 31°06' E 122°29'  

Dump ship's entire track history